sensor_id;sensor_type;location;lat;lon;timestamp;pressure;altitude;pressure_sealevel;temperature;humidity
47811;BME280;33575;52.600;7.318;2023-05-17T00:02:07;102101.40;;;10.06;88.94
47811;BME280;33575;52.600;7.318;2023-05-17T00:04:38;102099.87;;;10.12;88.92
47811;BME280;33575;52.600;7.318;2023-05-17T00:07:08;102097.81;;;10.10;89.19
47811;BME280;33575;52.600;7.318;2023-05-17T00:09:39;102096.87;;;10.15;88.85
47811;BME280;33575;52.600;7.318;2023-05-17T00:12:09;102098.71;;;10.15;88.54
47811;BME280;33575;52.600;7.318;2023-05-17T00:14:40;102097.59;;;9.99;90.22
47811;BME280;33575;52.600;7.318;2023-05-17T00:17:10;102099.24;;;9.79;91.14
47811;BME280;33575;52.600;7.318;2023-05-17T00:19:40;102096.62;;;9.89;89.86
47811;BME280;33575;52.600;7.318;2023-05-17T00:22:10;102099.51;;;9.96;89.87
47811;BME280;33575;52.600;7.318;2023-05-17T00:24:41;102099.38;;;9.93;90.07
47811;BME280;33575;52.600;7.318;2023-05-17T00:27:11;102105.71;;;9.90;90.58
47811;BME280;33575;52.600;7.318;2023-05-17T00:29:42;102105.35;;;9.88;90.58
47811;BME280;33575;52.600;7.318;2023-05-17T00:32:12;102103.46;;;9.69;90.99
47811;BME280;33575;52.600;7.318;2023-05-17T00:34:42;102106.16;;;9.58;91.66
47811;BME280;33575;52.600;7.318;2023-05-17T00:37:13;102107.71;;;9.50;92.06
47811;BME280;33575;52.600;7.318;2023-05-17T00:39:43;102107.78;;;9.50;92.03
47811;BME280;33575;52.600;7.318;2023-05-17T00:42:14;102107.06;;;9.59;91.02
47811;BME280;33575;52.600;7.318;2023-05-17T00:44:45;102112.45;;;9.69;90.86
47811;BME280;33575;52.600;7.318;2023-05-17T00:47:15;102108.72;;;9.79;90.59
47811;BME280;33575;52.600;7.318;2023-05-17T00:49:46;102112.15;;;9.72;91.16
47811;BME280;33575;52.600;7.318;2023-05-17T00:52:16;102112.51;;;9.74;90.98
47811;BME280;33575;52.600;7.318;2023-05-17T00:54:47;102111.82;;;9.41;92.50
47811;BME280;33575;52.600;7.318;2023-05-17T00:57:17;102113.39;;;9.50;92.03
47811;BME280;33575;52.600;7.318;2023-05-17T00:59:48;102119.01;;;9.55;91.84
47811;BME280;33575;52.600;7.318;2023-05-17T01:02:18;102120.67;;;9.59;91.46
47811;BME280;33575;52.600;7.318;2023-05-17T01:04:49;102127.30;;;9.58;91.73
47811;BME280;33575;52.600;7.318;2023-05-17T01:07:19;102128.33;;;9.49;92.03
47811;BME280;33575;52.600;7.318;2023-05-17T01:09:50;102128.80;;;9.48;92.26
47811;BME280;33575;52.600;7.318;2023-05-17T01:12:31;102131.57;;;9.40;92.43
47811;BME280;33575;52.600;7.318;2023-05-17T01:14:57;102132.27;;;9.44;92.00
47811;BME280;33575;52.600;7.318;2023-05-17T01:17:27;102132.02;;;9.40;92.25
47811;BME280;33575;52.600;7.318;2023-05-17T01:19:56;102131.32;;;9.35;92.35
47811;BME280;33575;52.600;7.318;2023-05-17T01:22:31;102134.45;;;9.17;93.02
47811;BME280;33575;52.600;7.318;2023-05-17T01:25:02;102138.46;;;9.26;92.38
47811;BME280;33575;52.600;7.318;2023-05-17T01:27:24;102138.58;;;9.25;92.04
47811;BME280;33575;52.600;7.318;2023-05-17T01:29:55;102132.93;;;9.37;91.49
47811;BME280;33575;52.600;7.318;2023-05-17T01:32:24;102133.87;;;9.37;91.34
47811;BME280;33575;52.600;7.318;2023-05-17T01:34:54;102135.25;;;9.38;91.23
47811;BME280;33575;52.600;7.318;2023-05-17T01:37:25;102132.43;;;9.48;90.72
47811;BME280;33575;52.600;7.318;2023-05-17T01:39:55;102132.11;;;9.56;90.20
47811;BME280;33575;52.600;7.318;2023-05-17T01:42:30;102131.93;;;9.65;89.71
47811;BME280;33575;52.600;7.318;2023-05-17T01:45:03;102137.01;;;9.74;89.44
47811;BME280;33575;52.600;7.318;2023-05-17T01:47:32;102135.71;;;9.81;88.85
47811;BME280;33575;52.600;7.318;2023-05-17T01:49:58;102135.60;;;9.87;88.55
47811;BME280;33575;52.600;7.318;2023-05-17T01:52:34;102135.32;;;9.95;88.30
47811;BME280;33575;52.600;7.318;2023-05-17T01:55:05;102138.78;;;9.99;87.84
47811;BME280;33575;52.600;7.318;2023-05-17T01:57:32;102141.76;;;9.97;87.77
47811;BME280;33575;52.600;7.318;2023-05-17T02:00:04;102143.91;;;9.97;87.51
47811;BME280;33575;52.600;7.318;2023-05-17T02:02:31;102145.79;;;9.96;87.43
47811;BME280;33575;52.600;7.318;2023-05-17T02:05:01;102147.16;;;9.93;87.21
47811;BME280;33575;52.600;7.318;2023-05-17T02:07:32;102144.58;;;9.89;87.13
47811;BME280;33575;52.600;7.318;2023-05-17T02:10:03;102145.75;;;9.83;87.25
47811;BME280;33575;52.600;7.318;2023-05-17T02:12:33;102149.81;;;9.78;87.17
47811;BME280;33575;52.600;7.318;2023-05-17T02:15:04;102152.57;;;9.79;87.14
47811;BME280;33575;52.600;7.318;2023-05-17T02:17:34;102153.43;;;9.80;87.09
47811;BME280;33575;52.600;7.318;2023-05-17T02:20:06;102157.35;;;9.80;86.95
47811;BME280;33575;52.600;7.318;2023-05-17T02:22:35;102158.81;;;9.81;86.76
47811;BME280;33575;52.600;7.318;2023-05-17T02:25:06;102160.17;;;9.79;86.79
47811;BME280;33575;52.600;7.318;2023-05-17T02:27:36;102155.04;;;9.70;86.91
47811;BME280;33575;52.600;7.318;2023-05-17T02:30:07;102156.85;;;9.71;86.80
47811;BME280;33575;52.600;7.318;2023-05-17T02:32:37;102156.44;;;9.62;86.87
47811;BME280;33575;52.600;7.318;2023-05-17T02:35:08;102158.08;;;9.51;86.95
47811;BME280;33575;52.600;7.318;2023-05-17T02:37:38;102163.21;;;9.37;87.48
47811;BME280;33575;52.600;7.318;2023-05-17T02:40:09;102163.46;;;9.31;87.46
47811;BME280;33575;52.600;7.318;2023-05-17T02:42:39;102164.78;;;9.32;87.30
47811;BME280;33575;52.600;7.318;2023-05-17T02:45:10;102167.20;;;9.26;87.37
47811;BME280;33575;52.600;7.318;2023-05-17T02:47:40;102167.13;;;9.24;87.34
47811;BME280;33575;52.600;7.318;2023-05-17T02:50:11;102168.56;;;9.14;87.68
47811;BME280;33575;52.600;7.318;2023-05-17T02:52:41;102167.43;;;9.15;87.45
47811;BME280;33575;52.600;7.318;2023-05-17T02:55:12;102164.47;;;9.16;87.39
47811;BME280;33575;52.600;7.318;2023-05-17T02:57:43;102167.90;;;9.13;87.23
47811;BME280;33575;52.600;7.318;2023-05-17T03:00:14;102167.49;;;9.19;87.03
47811;BME280;33575;52.600;7.318;2023-05-17T03:02:44;102169.75;;;9.17;86.79
47811;BME280;33575;52.600;7.318;2023-05-17T03:05:14;102177.17;;;9.15;86.92
47811;BME280;33575;52.600;7.318;2023-05-17T03:07:45;102178.28;;;9.14;86.99
47811;BME280;33575;52.600;7.318;2023-05-17T03:10:15;102180.02;;;9.13;86.74
47811;BME280;33575;52.600;7.318;2023-05-17T03:12:46;102183.85;;;9.04;86.93
47811;BME280;33575;52.600;7.318;2023-05-17T03:15:16;102183.99;;;9.06;86.87
47811;BME280;33575;52.600;7.318;2023-05-17T03:17:47;102186.96;;;9.00;87.00
47811;BME280;33575;52.600;7.318;2023-05-17T03:20:17;102188.42;;;8.97;87.01
47811;BME280;33575;52.600;7.318;2023-05-17T03:22:48;102192.24;;;9.00;86.94
47811;BME280;33575;52.600;7.318;2023-05-17T03:25:18;102195.11;;;9.00;87.02
47811;BME280;33575;52.600;7.318;2023-05-17T03:27:49;102197.82;;;9.00;87.00
47811;BME280;33575;52.600;7.318;2023-05-17T03:30:19;102201.24;;;8.95;87.44
47811;BME280;33575;52.600;7.318;2023-05-17T03:32:51;102208.51;;;8.80;87.72
47811;BME280;33575;52.600;7.318;2023-05-17T03:35:20;102212.47;;;8.76;88.00
47811;BME280;33575;52.600;7.318;2023-05-17T03:37:51;102213.89;;;8.73;88.05
47811;BME280;33575;52.600;7.318;2023-05-17T03:40:22;102215.39;;;8.77;88.12
47811;BME280;33575;52.600;7.318;2023-05-17T03:42:52;102217.51;;;8.76;88.15
47811;BME280;33575;52.600;7.318;2023-05-17T03:45:23;102216.22;;;8.82;87.85
47811;BME280;33575;52.600;7.318;2023-05-17T03:47:53;102224.22;;;8.78;87.97
47811;BME280;33575;52.600;7.318;2023-05-17T03:50:24;102227.38;;;8.61;88.59
47811;BME280;33575;52.600;7.318;2023-05-17T03:52:54;102228.49;;;8.70;88.21
47811;BME280;33575;52.600;7.318;2023-05-17T03:55:25;102229.22;;;8.68;88.32
47811;BME280;33575;52.600;7.318;2023-05-17T03:57:55;102232.84;;;8.60;88.72
47811;BME280;33575;52.600;7.318;2023-05-17T04:00:26;102235.53;;;8.55;88.75
47811;BME280;33575;52.600;7.318;2023-05-17T04:02:56;102241.32;;;8.51;89.18
47811;BME280;33575;52.600;7.318;2023-05-17T04:05:28;102246.20;;;8.52;89.13
47811;BME280;33575;52.600;7.318;2023-05-17T04:07:58;102250.96;;;8.53;88.80
47811;BME280;33575;52.600;7.318;2023-05-17T04:10:29;102255.08;;;8.42;89.18
47811;BME280;33575;52.600;7.318;2023-05-17T04:12:59;102257.97;;;8.37;89.55
47811;BME280;33575;52.600;7.318;2023-05-17T04:15:30;102256.71;;;8.49;89.03
47811;BME280;33575;52.600;7.318;2023-05-17T04:18:00;102262.93;;;8.56;88.93
47811;BME280;33575;52.600;7.318;2023-05-17T04:20:30;102265.03;;;8.53;88.78
47811;BME280;33575;52.600;7.318;2023-05-17T04:23:01;102267.67;;;8.48;89.19
47811;BME280;33575;52.600;7.318;2023-05-17T04:25:32;102273.30;;;8.45;89.31
47811;BME280;33575;52.600;7.318;2023-05-17T04:28:02;102277.10;;;8.39;89.78
47811;BME280;33575;52.600;7.318;2023-05-17T04:30:33;102280.64;;;8.47;89.79
47811;BME280;33575;52.600;7.318;2023-05-17T04:33:04;102284.55;;;8.54;89.43
47811;BME280;33575;52.600;7.318;2023-05-17T04:35:34;102285.94;;;8.62;89.42
47811;BME280;33575;52.600;7.318;2023-05-17T04:38:05;102288.48;;;8.69;89.44
47811;BME280;33575;52.600;7.318;2023-05-17T04:40:36;102294.17;;;8.57;89.75
47811;BME280;33575;52.600;7.318;2023-05-17T04:43:06;102297.25;;;8.62;89.55
47811;BME280;33575;52.600;7.318;2023-05-17T04:45:36;102301.08;;;8.53;90.02
47811;BME280;33575;52.600;7.318;2023-05-17T04:48:07;102300.38;;;8.59;90.02
47811;BME280;33575;52.600;7.318;2023-05-17T04:50:37;102307.96;;;8.58;89.67
47811;BME280;33575;52.600;7.318;2023-05-17T04:53:08;102309.08;;;8.66;89.51
47811;BME280;33575;52.600;7.318;2023-05-17T04:55:38;102310.74;;;8.64;89.75
47811;BME280;33575;52.600;7.318;2023-05-17T04:58:09;102307.59;;;8.76;89.31
47811;BME280;33575;52.600;7.318;2023-05-17T05:00:39;102314.35;;;8.79;89.42
47811;BME280;33575;52.600;7.318;2023-05-17T05:03:10;102315.06;;;8.88;88.82
47811;BME280;33575;52.600;7.318;2023-05-17T05:05:40;102320.35;;;8.81;88.62
47811;BME280;33575;52.600;7.318;2023-05-17T05:08:11;102325.04;;;8.77;88.56
47811;BME280;33575;52.600;7.318;2023-05-17T05:10:41;102326.84;;;8.86;88.60
47811;BME280;33575;52.600;7.318;2023-05-17T05:13:12;102329.68;;;8.87;88.27
47811;BME280;33575;52.600;7.318;2023-05-17T05:15:42;102334.19;;;8.79;87.94
47811;BME280;33575;52.600;7.318;2023-05-17T05:18:13;102336.89;;;8.88;87.93
47811;BME280;33575;52.600;7.318;2023-05-17T05:20:46;102341.92;;;8.95;87.39
47811;BME280;33575;52.600;7.318;2023-05-17T05:23:14;102343.90;;;9.06;87.51
47811;BME280;33575;52.600;7.318;2023-05-17T05:25:45;102346.51;;;8.99;86.68
47811;BME280;33575;52.600;7.318;2023-05-17T05:28:15;102353.95;;;8.83;87.88
47811;BME280;33575;52.600;7.318;2023-05-17T05:30:46;102357.48;;;8.86;86.49
47811;BME280;33575;52.600;7.318;2023-05-17T05:33:16;102364.85;;;8.61;86.88
47811;BME280;33575;52.600;7.318;2023-05-17T05:35:47;102364.68;;;8.95;87.01
47811;BME280;33575;52.600;7.318;2023-05-17T05:38:17;102363.50;;;9.04;86.97
47811;BME280;33575;52.600;7.318;2023-05-17T05:40:48;102368.26;;;9.02;86.53
47811;BME280;33575;52.600;7.318;2023-05-17T05:43:18;102373.55;;;9.17;86.18
47811;BME280;33575;52.600;7.318;2023-05-17T05:45:49;102376.49;;;9.24;85.94
47811;BME280;33575;52.600;7.318;2023-05-17T05:48:19;102377.10;;;9.12;84.33
47811;BME280;33575;52.600;7.318;2023-05-17T05:50:50;102384.14;;;9.15;84.78
47811;BME280;33575;52.600;7.318;2023-05-17T05:53:20;102387.14;;;9.05;84.81
47811;BME280;33575;52.600;7.318;2023-05-17T05:55:51;102392.28;;;9.03;85.20
47811;BME280;33575;52.600;7.318;2023-05-17T05:58:21;102400.84;;;8.87;84.62
47811;BME280;33575;52.600;7.318;2023-05-17T06:00:52;102399.62;;;8.92;85.22
47811;BME280;33575;52.600;7.318;2023-05-17T06:03:23;102406.95;;;8.85;83.36
47811;BME280;33575;52.600;7.318;2023-05-17T06:05:54;102411.39;;;8.68;83.63
47811;BME280;33575;52.600;7.318;2023-05-17T06:08:24;102413.12;;;8.55;84.30
47811;BME280;33575;52.600;7.318;2023-05-17T06:10:54;102417.59;;;8.68;83.87
47811;BME280;33575;52.600;7.318;2023-05-17T06:13:25;102420.56;;;8.80;83.46
47811;BME280;33575;52.600;7.318;2023-05-17T06:15:55;102418.97;;;8.94;83.71
47811;BME280;33575;52.600;7.318;2023-05-17T06:18:26;102421.49;;;9.08;83.61
47811;BME280;33575;52.600;7.318;2023-05-17T06:20:57;102428.74;;;9.06;83.09
47811;BME280;33575;52.600;7.318;2023-05-17T06:23:27;102433.05;;;9.10;82.81
47811;BME280;33575;52.600;7.318;2023-05-17T06:25:58;102432.21;;;9.28;81.96
47811;BME280;33575;52.600;7.318;2023-05-17T06:28:28;102435.81;;;9.24;82.42
47811;BME280;33575;52.600;7.318;2023-05-17T06:30:58;102436.64;;;9.28;80.08
47811;BME280;33575;52.600;7.318;2023-05-17T06:33:29;102437.88;;;9.31;79.81
47811;BME280;33575;52.600;7.318;2023-05-17T06:36:01;102432.94;;;9.42;80.01
47811;BME280;33575;52.600;7.318;2023-05-17T06:38:30;102444.29;;;9.36;78.79
47811;BME280;33575;52.600;7.318;2023-05-17T06:41:01;102439.83;;;9.34;77.14
47811;BME280;33575;52.600;7.318;2023-05-17T06:43:31;102442.61;;;9.46;78.43
47811;BME280;33575;52.600;7.318;2023-05-17T06:46:02;102442.50;;;9.32;76.90
47811;BME280;33575;52.600;7.318;2023-05-17T06:48:33;102436.36;;;9.56;77.49
47811;BME280;33575;52.600;7.318;2023-05-17T06:51:03;102440.76;;;9.46;76.06
47811;BME280;33575;52.600;7.318;2023-05-17T06:53:34;102443.33;;;9.56;77.92
47811;BME280;33575;52.600;7.318;2023-05-17T06:56:04;102452.52;;;9.48;77.44
47811;BME280;33575;52.600;7.318;2023-05-17T06:58:35;102459.06;;;9.40;78.11
47811;BME280;33575;52.600;7.318;2023-05-17T07:01:05;102461.07;;;9.53;77.93
47811;BME280;33575;52.600;7.318;2023-05-17T07:03:36;102465.04;;;9.46;77.95
47811;BME280;33575;52.600;7.318;2023-05-17T07:06:07;102469.29;;;9.46;78.00
47811;BME280;33575;52.600;7.318;2023-05-17T07:08:37;102473.55;;;9.16;77.25
47811;BME280;33575;52.600;7.318;2023-05-17T07:11:08;102479.55;;;8.98;76.07
47811;BME280;33575;52.600;7.318;2023-05-17T07:13:38;102477.92;;;8.81;77.14
47811;BME280;33575;52.600;7.318;2023-05-17T07:16:09;102480.88;;;8.87;76.60
47811;BME280;33575;52.600;7.318;2023-05-17T07:18:40;102482.76;;;8.96;78.35
47811;BME280;33575;52.600;7.318;2023-05-17T07:21:10;102475.52;;;9.11;78.27
47811;BME280;33575;52.600;7.318;2023-05-17T07:23:41;102480.96;;;9.16;77.10
47811;BME280;33575;52.600;7.318;2023-05-17T07:26:11;102485.01;;;9.24;75.88
47811;BME280;33575;52.600;7.318;2023-05-17T07:28:42;102492.59;;;8.94;74.83
47811;BME280;33575;52.600;7.318;2023-05-17T07:31:13;102489.96;;;9.08;74.48
47811;BME280;33575;52.600;7.318;2023-05-17T07:33:43;102491.98;;;9.17;74.56
47811;BME280;33575;52.600;7.318;2023-05-17T07:36:14;102497.73;;;9.25;74.35
47811;BME280;33575;52.600;7.318;2023-05-17T07:38:44;102494.63;;;9.23;73.90
47811;BME280;33575;52.600;7.318;2023-05-17T07:41:16;102504.62;;;9.12;74.94
47811;BME280;33575;52.600;7.318;2023-05-17T07:43:45;102505.59;;;9.23;73.80
47811;BME280;33575;52.600;7.318;2023-05-17T07:46:16;102508.76;;;8.99;73.37
47811;BME280;33575;52.600;7.318;2023-05-17T07:48:47;102511.17;;;9.15;73.67
47811;BME280;33575;52.600;7.318;2023-05-17T07:51:17;102515.59;;;9.15;73.74
47811;BME280;33575;52.600;7.318;2023-05-17T07:53:48;102516.58;;;9.00;72.41
47811;BME280;33575;52.600;7.318;2023-05-17T07:56:19;102519.79;;;8.91;70.57
47811;BME280;33575;52.600;7.318;2023-05-17T07:58:49;102521.18;;;8.99;69.72
47811;BME280;33575;52.600;7.318;2023-05-17T08:01:20;102526.86;;;8.79;68.83
47811;BME280;33575;52.600;7.318;2023-05-17T08:03:50;102523.92;;;8.98;68.19
47811;BME280;33575;52.600;7.318;2023-05-17T08:06:21;102529.79;;;9.05;66.68
47811;BME280;33575;52.600;7.318;2023-05-17T08:08:51;102533.42;;;9.12;67.63
47811;BME280;33575;52.600;7.318;2023-05-17T08:11:22;102535.55;;;9.24;66.83
47811;BME280;33575;52.600;7.318;2023-05-17T08:13:53;102531.04;;;9.39;66.09
47811;BME280;33575;52.600;7.318;2023-05-17T08:16:23;102537.46;;;9.38;66.09
47811;BME280;33575;52.600;7.318;2023-05-17T08:18:54;102536.14;;;9.43;66.72
47811;BME280;33575;52.600;7.318;2023-05-17T08:21:25;102535.27;;;9.47;66.17
47811;BME280;33575;52.600;7.318;2023-05-17T08:23:55;102541.61;;;9.49;67.21
47811;BME280;33575;52.600;7.318;2023-05-17T08:26:26;102546.90;;;9.70;66.93
47811;BME280;33575;52.600;7.318;2023-05-17T08:28:56;102544.81;;;9.79;65.52
47811;BME280;33575;52.600;7.318;2023-05-17T08:31:27;102546.30;;;9.93;65.06
47811;BME280;33575;52.600;7.318;2023-05-17T08:33:57;102540.53;;;9.89;63.87
47811;BME280;33575;52.600;7.318;2023-05-17T08:36:28;102542.66;;;10.03;65.71
47811;BME280;33575;52.600;7.318;2023-05-17T08:38:58;102539.49;;;10.21;65.90
47811;BME280;33575;52.600;7.318;2023-05-17T08:41:30;102543.64;;;10.55;66.30
47811;BME280;33575;52.600;7.318;2023-05-17T08:44:01;102543.98;;;10.61;65.85
47811;BME280;33575;52.600;7.318;2023-05-17T08:46:31;102543.18;;;10.47;63.18
47811;BME280;33575;52.600;7.318;2023-05-17T08:49:02;102545.21;;;10.68;63.98
47811;BME280;33575;52.600;7.318;2023-05-17T08:51:31;102548.11;;;10.81;63.43
47811;BME280;33575;52.600;7.318;2023-05-17T08:54:02;102558.34;;;10.75;64.55
47811;BME280;33575;52.600;7.318;2023-05-17T08:56:34;102554.91;;;10.61;63.78
47811;BME280;33575;52.600;7.318;2023-05-17T08:59:05;102547.53;;;10.72;65.12
47811;BME280;33575;52.600;7.318;2023-05-17T09:01:34;102544.72;;;10.90;64.40
47811;BME280;33575;52.600;7.318;2023-05-17T09:04:04;102546.11;;;10.87;61.42
47811;BME280;33575;52.600;7.318;2023-05-17T09:06:34;102547.93;;;10.86;61.34
47811;BME280;33575;52.600;7.318;2023-05-17T09:09:05;102551.64;;;10.87;62.33
47811;BME280;33575;52.600;7.318;2023-05-17T09:11:35;102558.71;;;10.82;61.57
47811;BME280;33575;52.600;7.318;2023-05-17T09:14:06;102563.25;;;10.85;63.15
47811;BME280;33575;52.600;7.318;2023-05-17T09:16:36;102571.94;;;10.68;65.17
47811;BME280;33575;52.600;7.318;2023-05-17T09:19:07;102568.98;;;10.62;64.52
47811;BME280;33575;52.600;7.318;2023-05-17T09:21:37;102574.92;;;10.54;65.40
47811;BME280;33575;52.600;7.318;2023-05-17T09:24:09;102580.52;;;10.35;66.72
47811;BME280;33575;52.600;7.318;2023-05-17T09:26:39;102586.37;;;10.26;66.97
47811;BME280;33575;52.600;7.318;2023-05-17T09:29:10;102582.63;;;10.19;68.08
47811;BME280;33575;52.600;7.318;2023-05-17T09:31:40;102586.68;;;10.19;68.42
47811;BME280;33575;52.600;7.318;2023-05-17T09:34:10;102584.75;;;10.24;68.13
47811;BME280;33575;52.600;7.318;2023-05-17T09:36:42;102582.41;;;10.39;68.99
47811;BME280;33575;52.600;7.318;2023-05-17T09:39:11;102589.18;;;10.45;69.10
47811;BME280;33575;52.600;7.318;2023-05-17T09:41:42;102589.27;;;10.36;68.78
47811;BME280;33575;52.600;7.318;2023-05-17T09:44:13;102591.81;;;10.36;67.85
47811;BME280;33575;52.600;7.318;2023-05-17T09:46:44;102586.67;;;10.46;68.59
47811;BME280;33575;52.600;7.318;2023-05-17T09:49:13;102593.74;;;10.45;68.34
47811;BME280;33575;52.600;7.318;2023-05-17T09:51:45;102586.25;;;10.39;68.11
47811;BME280;33575;52.600;7.318;2023-05-17T09:54:14;102584.12;;;10.66;67.19
47811;BME280;33575;52.600;7.318;2023-05-17T09:56:52;102590.08;;;10.68;66.50
47811;BME280;33575;52.600;7.318;2023-05-17T09:59:15;102584.96;;;10.84;64.93
47811;BME280;33575;52.600;7.318;2023-05-17T10:01:47;102589.05;;;10.75;64.77
47811;BME280;33575;52.600;7.318;2023-05-17T10:04:17;102585.39;;;10.64;65.50
47811;BME280;33575;52.600;7.318;2023-05-17T10:06:52;102585.34;;;10.83;65.81
47811;BME280;33575;52.600;7.318;2023-05-17T10:09:22;102583.24;;;11.14;62.37
47811;BME280;33575;52.600;7.318;2023-05-17T10:11:51;102583.05;;;11.21;62.16
47811;BME280;33575;52.600;7.318;2023-05-17T10:14:23;102581.86;;;11.16;60.45
47811;BME280;33575;52.600;7.318;2023-05-17T10:16:48;102572.76;;;11.26;60.70
47811;BME280;33575;52.600;7.318;2023-05-17T10:19:19;102579.40;;;11.31;61.36
47811;BME280;33575;52.600;7.318;2023-05-17T10:21:51;102583.62;;;11.12;60.15
47811;BME280;33575;52.600;7.318;2023-05-17T10:24:20;102585.26;;;11.27;59.77
47811;BME280;33575;52.600;7.318;2023-05-17T10:26:51;102582.44;;;11.45;61.64
47811;BME280;33575;52.600;7.318;2023-05-17T10:29:22;102579.71;;;11.52;59.32
47811;BME280;33575;52.600;7.318;2023-05-17T10:31:52;102586.73;;;11.39;60.26
47811;BME280;33575;52.600;7.318;2023-05-17T10:34:25;102581.44;;;11.52;61.85
47811;BME280;33575;52.600;7.318;2023-05-17T10:36:53;102585.54;;;11.67;60.89
47811;BME280;33575;52.600;7.318;2023-05-17T10:39:23;102587.38;;;11.38;59.84
47811;BME280;33575;52.600;7.318;2023-05-17T10:42:01;102585.50;;;11.46;60.25
47811;BME280;33575;52.600;7.318;2023-05-17T10:44:24;102584.49;;;11.48;60.63
47811;BME280;33575;52.600;7.318;2023-05-17T10:46:56;102586.40;;;11.77;60.60
47811;BME280;33575;52.600;7.318;2023-05-17T10:49:28;102582.67;;;11.80;59.45
47811;BME280;33575;52.600;7.318;2023-05-17T10:51:56;102577.01;;;11.94;59.17
47811;BME280;33575;52.600;7.318;2023-05-17T10:54:33;102572.94;;;12.22;58.13
47811;BME280;33575;52.600;7.318;2023-05-17T10:57:01;102583.02;;;12.30;58.83
47811;BME280;33575;52.600;7.318;2023-05-17T10:59:27;102575.99;;;12.36;58.33
47811;BME280;33575;52.600;7.318;2023-05-17T11:01:59;102573.89;;;12.65;58.07
47811;BME280;33575;52.600;7.318;2023-05-17T11:04:33;102574.61;;;12.27;57.46
47811;BME280;33575;52.600;7.318;2023-05-17T11:09:31;102572.58;;;12.17;58.69
47811;BME280;33575;52.600;7.318;2023-05-17T11:12:04;102573.73;;;12.35;58.54
47811;BME280;33575;52.600;7.318;2023-05-17T11:19:31;102570.27;;;11.95;59.04
47811;BME280;33575;52.600;7.318;2023-05-17T11:22:09;102576.44;;;11.83;60.45
47811;BME280;33575;52.600;7.318;2023-05-17T11:24:32;102574.50;;;11.77;60.30
47811;BME280;33575;52.600;7.318;2023-05-17T11:27:04;102573.54;;;11.92;59.91
47811;BME280;33575;52.600;7.318;2023-05-17T11:29:33;102575.35;;;11.95;61.68
47811;BME280;33575;52.600;7.318;2023-05-17T11:32:04;102576.16;;;12.02;61.26
47811;BME280;33575;52.600;7.318;2023-05-17T11:34:34;102581.74;;;11.90;60.72
47811;BME280;33575;52.600;7.318;2023-05-17T11:37:09;102581.24;;;11.92;60.89
47811;BME280;33575;52.600;7.318;2023-05-17T11:39:35;102578.13;;;11.87;60.37
47811;BME280;33575;52.600;7.318;2023-05-17T11:42:10;102579.20;;;12.11;59.37
47811;BME280;33575;52.600;7.318;2023-05-17T11:44:36;102579.18;;;12.19;60.31
47811;BME280;33575;52.600;7.318;2023-05-17T11:47:07;102579.53;;;12.49;59.88
47811;BME280;33575;52.600;7.318;2023-05-17T11:49:38;102575.72;;;12.30;58.47
47811;BME280;33575;52.600;7.318;2023-05-17T11:52:08;102577.31;;;12.02;57.73
47811;BME280;33575;52.600;7.318;2023-05-17T11:54:38;102578.69;;;11.94;58.16
47811;BME280;33575;52.600;7.318;2023-05-17T11:57:08;102575.73;;;12.09;58.88
47811;BME280;33575;52.600;7.318;2023-05-17T11:59:39;102562.92;;;12.47;57.69
47811;BME280;33575;52.600;7.318;2023-05-17T12:02:09;102573.37;;;12.64;58.76
47811;BME280;33575;52.600;7.318;2023-05-17T12:04:40;102571.56;;;12.30;57.45
47811;BME280;33575;52.600;7.318;2023-05-17T12:07:10;102575.60;;;12.10;59.41
47811;BME280;33575;52.600;7.318;2023-05-17T12:09:43;102575.01;;;12.16;60.31
47811;BME280;33575;52.600;7.318;2023-05-17T12:12:11;102564.05;;;11.90;59.07
47811;BME280;33575;52.600;7.318;2023-05-17T12:14:42;102576.04;;;11.78;60.32
47811;BME280;33575;52.600;7.318;2023-05-17T12:17:18;102569.72;;;11.78;60.36
47811;BME280;33575;52.600;7.318;2023-05-17T12:19:43;102573.86;;;11.58;62.13
47811;BME280;33575;52.600;7.318;2023-05-17T12:22:14;102572.31;;;11.67;61.64
47811;BME280;33575;52.600;7.318;2023-05-17T12:24:44;102580.13;;;11.75;60.60
47811;BME280;33575;52.600;7.318;2023-05-17T12:27:23;102573.70;;;11.85;61.14
47811;BME280;33575;52.600;7.318;2023-05-17T12:29:45;102579.62;;;11.86;61.37
47811;BME280;33575;52.600;7.318;2023-05-17T12:32:15;102577.92;;;11.70;61.11
47811;BME280;33575;52.600;7.318;2023-05-17T12:34:46;102579.98;;;11.66;59.58
47811;BME280;33575;52.600;7.318;2023-05-17T12:37:16;102575.52;;;11.87;59.29
47811;BME280;33575;52.600;7.318;2023-05-17T12:39:46;102571.30;;;11.74;58.50
47811;BME280;33575;52.600;7.318;2023-05-17T12:42:17;102573.93;;;11.73;58.27
47811;BME280;33575;52.600;7.318;2023-05-17T12:44:47;102574.75;;;11.72;59.01
47811;BME280;33575;52.600;7.318;2023-05-17T12:47:18;102573.98;;;11.97;57.28
47811;BME280;33575;52.600;7.318;2023-05-17T12:49:53;102569.78;;;12.17;56.21
47811;BME280;33575;52.600;7.318;2023-05-17T12:52:19;102560.21;;;12.45;58.09
47811;BME280;33575;52.600;7.318;2023-05-17T12:54:49;102561.36;;;12.35;56.48
47811;BME280;33575;52.600;7.318;2023-05-17T12:57:20;102565.29;;;12.41;56.37
47811;BME280;33575;52.600;7.318;2023-05-17T12:59:51;102562.67;;;12.47;56.14
47811;BME280;33575;52.600;7.318;2023-05-17T13:02:21;102569.16;;;12.33;56.71
47811;BME280;33575;52.600;7.318;2023-05-17T13:04:51;102563.83;;;12.43;58.45
47811;BME280;33575;52.600;7.318;2023-05-17T13:07:22;102564.88;;;12.65;59.16
47811;BME280;33575;52.600;7.318;2023-05-17T13:09:52;102562.33;;;12.78;59.22
47811;BME280;33575;52.600;7.318;2023-05-17T13:12:23;102565.73;;;12.65;60.12
47811;BME280;33575;52.600;7.318;2023-05-17T13:14:53;102562.89;;;12.92;58.62
47811;BME280;33575;52.600;7.318;2023-05-17T13:17:26;102560.94;;;12.72;59.57
47811;BME280;33575;52.600;7.318;2023-05-17T13:19:55;102566.13;;;12.76;60.61
47811;BME280;33575;52.600;7.318;2023-05-17T13:22:25;102557.09;;;13.05;59.55